Latest Weather Observations for Pearce

IDW60901

Issued at 2:41 am WST Monday 24 July 2017 (issued every 10 minutes, with the page automatically refreshed every 10 minutes)

About weather observations | Map of Perth area stations | Latest observations for Perth area | Other Formats
Station Details ID: 009053 Name: PEARCE RAAF Lat: -31.67 Lon: 116.02 Height: 40.0 m
Data from the previous 72 hours. | See also: Recent months at Pearce
Date/Time
WST
Temp
°C
App
Temp
°C
Dew
Point
°C
Rel
Hum
%
Delta-T
°C
Wind Press
QNH
hPa
Press
MSL
hPa
Rain since
9am
mm
Dir  Spd
km/h
Gust
km/h
Spd
kts
Gust
kts
24/02:30am 11.7 10.4 11.1 96 0.3 N 9 15 5 8 1017.9 1017.9 22.6
24/02:00am 12.7 12.1 12.2 97 0.3 N 7 11 4 6 1017.8 1017.8 22.6
24/01:30am 12.8 11.8 12.3 97 0.3 N 9 11 5 6 1017.9 1017.9 22.6
24/01:00am 13.2 12.3 12.7 97 0.3 N 9 11 5 6 1018.0 1018.0 22.6
24/12:30am 13.2 12.3 12.7 97 0.3 N 9 13 5 7 1018.1 1018.1 22.6
24/12:00am 13.2 12.9 12.7 97 0.3 N 6 9 3 5 1017.9 1017.9 22.6
 
Date/Time
WST
Temp
°C
App
Temp
°C
Dew
Point
°C
Rel
Hum
%
Delta-T
°C
Wind Press
QNH
hPa
Press
MSL
hPa
Rain since
9am
mm
Dir  Spd
km/h
Gust
km/h
Spd
kts
Gust
kts
23/11:30pm 13.3 12.5 12.8 97 0.3 N 9 13 5 7 1018.1 1018.1 22.6
23/11:00pm 13.3 12.8 12.8 97 0.3 N 7 9 4 5 1018.1 1018.1 22.4
23/10:30pm 13.4 13.0 12.9 97 0.3 N 7 9 4 5 1018.2 1018.2 22.4
23/10:00pm 13.3 12.8 12.8 97 0.3 NNW 7 9 4 5 1018.2 1018.2 22.4
23/09:30pm 13.3 12.8 12.8 97 0.3 NNW 7 11 4 6 1018.1 1018.1 22.4
23/09:00pm 13.4 13.2 12.9 97 0.3 NNW 6 9 3 5 1018.2 1018.2 22.4
23/08:30pm 13.3 12.1 12.7 96 0.3 NNW 11 13 6 7 1017.9 1017.9 21.8
23/08:00pm 13.4 12.2 12.8 96 0.3 NNW 11 13 6 7 1017.8 1017.8 21.8
23/07:30pm 13.5 12.7 12.9 96 0.3 NNW 9 13 5 7 1017.8 1017.8 21.8
23/07:00pm 13.5 12.7 12.9 96 0.3 N 9 13 5 7 1017.4 1017.4 21.2
23/06:30pm 13.6 12.5 13.0 96 0.3 N 11 13 6 7 1017.3 1017.3 21.2
23/06:00pm 14.0 12.5 13.2 95 0.4 NNW 13 15 7 8 1017.0 1017.0 20.8
23/05:30pm 14.3 12.9 13.5 95 0.4 NNW 13 17 7 9 1016.8 1016.8 20.8
23/05:00pm 14.1 11.8 13.0 93 0.6 WSW 17 22 9 12 1016.8 1016.8 20.0
23/04:30pm 14.7 12.3 13.9 95 0.4 N 19 24 10 13 1016.3 1016.3 17.8
23/04:00pm 14.6 12.6 13.8 95 0.4 N 17 20 9 11 1016.4 1016.4 17.0
23/03:32pm 14.1 12.7 13.3 95 0.4 NNW 13 17 7 9 1016.5 1016.5 17.0
23/03:30pm 14.1 12.7 13.3 95 0.4 NNW 13 17 7 9 1016.5 1016.5 17.0
23/03:00pm 14.2 11.9 12.9 92 0.7 NW 17 24 9 13 1016.6 1016.6 14.0
23/02:40pm 14.7 13.0 13.7 94 0.6 W 15 19 8 10 1016.6 1016.6 13.4
23/02:30pm 14.3 11.7 13.2 93 0.6 W 19 24 10 13 1016.6 1016.6 13.4
23/02:11pm 14.9 12.9 13.8 93 0.6 NW 17 22 9 12 1016.6 1016.6 11.6
23/02:09pm 14.9 12.9 13.8 93 0.6 NW 17 22 9 12 1016.6 1016.6 11.0
23/02:00pm 15.1 13.1 14.0 93 0.6 NW 17 22 9 12 1016.6 1016.6 10.8
23/01:56pm 15.0 13.4 13.9 93 0.6 NW 15 22 8 12 1016.6 1016.6 10.6
23/01:39pm 14.7 12.2 13.6 93 0.6 NW 19 28 10 15 1016.8 1016.8 10.6
23/01:30pm 14.6 12.0 13.1 91 0.8 NW 19 28 10 15 1016.9 1016.9 10.2
23/01:08pm 14.4 10.7 12.6 89 1.0 NW 24 33 13 18 1016.8 1016.8 10.2
23/01:00pm 14.2 10.9 12.9 92 0.7 WNW 22 32 12 17 1017.0 1017.0 10.2
23/12:40pm 13.7 10.0 11.6 87 1.1 NW 22 46 12 25 1017.5 1017.5 8.0
23/12:38pm 13.5 9.7 11.2 86 1.2 NW 22 46 12 25 1017.8 1017.8 5.8
23/12:36pm 15.0 12.3 13.0 88 1.1 NNW 19 32 10 17 1017.5 1017.5 2.2
23/12:30pm 15.6 12.4 13.1 85 1.4 NNW 22 35 12 19 1017.2 1017.2 0.4
23/12:00pm 16.3 12.2 12.7 79 2.0 NNW 26 33 14 18 1017.0 1017.0 0.0
23/11:30am 16.3 12.2 12.8 80 1.9 NNW 26 41 14 22 1017.9 1017.9 0.0
23/11:00am 15.2 12.0 13.1 87 1.2 NNW 22 32 12 17 1018.2 1018.2 0.0
23/10:30am 15.1 10.8 13.1 88 1.1 N 28 39 15 21 1018.2 1018.2 0.0
23/10:00am 16.0 12.7 14.0 88 1.1 N 24 33 13 18 1018.2 1018.2 0.0
23/09:30am 14.3 10.8 12.2 87 1.1 N 22 30 12 16 1017.9 1017.9 0.0
23/09:00am 14.4 10.9 12.1 86 1.2 N 22 28 12 15 1017.7 1017.7 4.0
23/08:30am 13.2 11.3 11.8 91 0.7 N 13 19 7 10 1017.7 1017.7 4.0
23/08:00am 13.2 10.4 11.4 89 1.0 N 17 22 9 12 1017.8 1017.8 3.6
23/07:30am 12.4 9.9 11.1 92 0.7 N 15 20 8 11 1017.5 1017.5 3.6
23/07:00am 12.4 10.3 11.1 92 0.7 N 13 17 7 9 1017.4 1017.4 3.6
23/06:30am 12.3 9.5 11.2 93 0.6 N 17 22 9 12 1017.1 1017.1 3.2
23/06:00am 12.6 9.4 11.3 92 0.7 N 19 24 10 13 1017.1 1017.1 3.2
23/05:30am 12.4 9.2 11.3 93 0.6 N 19 22 10 12 1017.0 1017.0 3.2
23/05:00am 12.6 9.5 11.7 94 0.5 N 19 24 10 13 1017.1 1017.1 3.2
23/04:30am 12.6 9.9 11.7 94 0.5 N 17 24 9 13 1017.4 1017.4 3.2
23/04:00am 12.5 10.6 11.7 95 0.4 NNE 13 19 7 10 1017.5 1017.5 3.2
23/03:30am 12.2 10.5 11.3 94 0.5 N 11 13 6 7 1017.7 1017.7 3.2
23/03:00am 12.9 11.4 12.0 94 0.5 NNE 11 15 6 8 1018.3 1018.3 3.2
23/02:30am 12.9 11.1 12.0 94 0.5 NE 13 15 7 8 1018.1 1018.1 3.2
23/02:00am 13.0 11.2 12.2 95 0.4 NNE 13 15 7 8 1018.3 1018.3 3.2
23/01:30am 12.6 11.1 12.0 96 0.3 NNE 11 13 6 7 1018.6 1018.6 3.2
23/01:00am 12.8 11.7 12.0 95 0.4 NW 9 11 5 6 1018.9 1018.9 3.0
23/12:41am 12.7 12.0 11.9 95 0.4 WSW 7 9 4 5 1019.0 1019.0 3.0
23/12:30am 12.9 12.2 12.1 95 0.4 WSW 7 9 4 5 1019.0 1019.0 2.8
23/12:01am 12.9 11.8 12.1 95 0.4 WSW 9 11 5 6 1019.1 1019.1 2.8
23/12:00am 12.9 11.8 12.1 95 0.4 WSW 9 11 5 6 1019.1 1019.1 2.8
 
Date/Time
WST
Temp
°C
App
Temp
°C
Dew
Point
°C
Rel
Hum
%
Delta-T
°C
Wind Press
QNH
hPa
Press
MSL
hPa
Rain since
9am
mm
Dir  Spd
km/h
Gust
km/h
Spd
kts
Gust
kts
22/11:30pm 13.0 11.9 12.1 94 0.5 WSW 9 13 5 7 1019.1 1019.1 2.8
22/11:00pm 12.7 11.6 12.1 96 0.3 SW 9 11 5 6 1019.5 1019.5 2.8
22/10:30pm 12.4 11.2 11.6 95 0.4 SW 9 9 5 5 1019.6 1019.6 2.8
22/10:00pm 12.7 11.6 11.9 95 0.4 SW 9 11 5 6 1019.7 1019.7 2.8
22/09:30pm 12.7 12.2 11.9 95 0.4 N 6 19 3 10 1019.8 1019.8 2.8
22/09:00pm 12.2 12.6 11.1 93 0.6 CALM 0 6 0 3 1019.5 1019.5 2.8
22/08:30pm 13.2 12.6 12.3 94 0.5 NNE 7 9 4 5 1019.6 1019.6 2.6
22/08:00pm 13.7 13.4 12.8 94 0.5 NNE 6 7 3 4 1019.5 1019.5 2.6
22/07:30pm 13.7 13.3 12.9 95 0.4 NNE 7 11 4 6 1019.3 1019.3 2.4
22/07:13pm 13.8 12.3 13.0 95 0.4 NNE 13 17 7 9 1019.3 1019.3 2.4
22/07:00pm 13.8 13.4 12.9 94 0.5 WSW 7 13 4 7 1019.3 1019.3 2.4
22/06:30pm 13.9 12.2 12.6 92 0.7 W 13 17 7 9 1019.2 1019.2 2.2
22/06:03pm 14.2 12.0 12.1 87 1.1 W 15 22 8 12 1018.8 1018.8 1.2
22/06:00pm 14.8 12.9 11.9 83 1.6 W 13 22 7 12 1018.8 1018.8 0.6
22/05:30pm 15.6 14.2 11.0 74 2.5 W 9 15 5 8 1018.3 1018.3 0.4
22/05:00pm 16.4 14.2 10.7 69 3.0 W 13 15 7 8 1018.2 1018.2 0.4
22/04:30pm 17.1 14.5 10.7 66 3.4 WSW 15 20 8 11 1018.0 1018.0 0.4
22/04:00pm 17.7 15.0 10.3 62 3.9 WSW 15 20 8 11 1017.6 1017.6 0.4
22/03:30pm 18.4 14.7 10.3 59 4.3 W 20 26 11 14 1017.6 1017.6 0.4
22/03:00pm 19.0 15.4 10.6 58 4.5 W 20 28 11 15 1017.4 1017.4 0.4
22/02:30pm 19.1 16.6 10.9 59 4.5 W 15 24 8 13 1017.4 1017.4 0.4
22/02:00pm 18.8 15.1 10.1 57 4.6 WSW 20 28 11 15 1017.5 1017.5 0.4
22/01:30pm 19.3 16.3 11.8 62 4.2 W 19 24 10 13 1017.7 1017.7 0.4
22/01:00pm 17.9 16.0 11.9 68 3.3 W 13 19 7 10 1018.1 1018.1 0.4
22/12:30pm 17.3 15.2 11.3 68 3.3 W 13 15 7 8 1018.5 1018.5 0.4
22/12:00pm 17.7 15.4 11.7 68 3.3 W 15 20 8 11 1019.0 1019.0 0.4
22/11:30am 16.4 15.5 12.6 78 2.1 WNW 9 13 5 7 1019.3 1019.3 0.4
22/11:00am 14.5 11.9 12.0 85 1.3 NW 17 35 9 19 1020.0 1020.0 0.4
22/10:58am 14.5 12.2 11.8 84 1.5 NW 15 35 8 19 1020.0 1020.0 0.4
22/10:30am 15.8 15.6 11.8 77 2.2 NW 4 7 2 4 1019.8 1019.8 0.0
22/10:00am 15.0 14.9 13.4 90 0.9 NW 6 7 3 4 1019.8 1019.8 0.0
22/09:30am 13.7 14.5 12.6 93 0.6 CALM 0 0 0 0 1019.7 1019.7 0.0
22/09:16am 13.4 13.0 12.3 93 0.6 NW 6 9 3 5 1019.6 1019.6 0.0
22/09:00am 13.3 12.3 12.2 93 0.6 NNW 9 13 5 7 1019.4 1019.4 8.8
22/08:59am 13.2 12.1 12.1 93 0.6 NNW 9 13 5 7 1019.4 1019.4 8.8
22/08:30am 12.5 11.7 11.6 94 0.5 NW 7 13 4 7 1018.8 1018.8 8.4
22/08:00am 11.8 10.4 11.0 95 0.4 N 9 11 5 6 1018.5 1018.5 8.4
22/07:30am 10.6 9.4 9.4 92 0.6 N 6 11 3 6 1018.0 1018.0 8.4
22/07:00am 11.5 10.4 10.6 94 0.5 N 7 9 4 5 1017.7 1017.7 8.4
22/06:30am 11.5 9.6 10.6 94 0.5 N 11 13 6 7 1017.3 1017.3 8.4
22/06:00am 12.2 10.9 11.4 95 0.4 NNW 9 11 5 6 1017.1 1017.1 8.4
22/05:30am 12.7 11.6 12.1 96 0.3 NNW 9 9 5 5 1016.9 1016.9 8.4
22/05:00am 12.8 12.4 12.3 97 0.3 NNW 6 9 3 5 1016.9 1016.9 8.4
22/04:30am 12.4 11.3 11.8 96 0.3 NNW 9 13 5 7 1016.9 1016.9 8.4
22/04:00am 13.1 12.2 12.6 97 0.3 NNW 9 11 5 6 1016.8 1016.8 8.4
22/03:30am 13.1 12.6 12.6 97 0.3 NNW 7 9 4 5 1016.8 1016.8 8.4
22/03:00am 12.9 12.3 12.3 96 0.3 NNW 7 7 4 4 1016.6 1016.6 8.4
22/02:30am 13.3 12.8 12.7 96 0.3 NNW 7 11 4 6 1016.6 1016.6 8.4
22/02:00am 13.5 12.3 12.9 96 0.3 NNW 11 13 6 7 1016.7 1016.7 8.4
22/01:30am 13.6 12.8 13.0 96 0.3 NNW 9 11 5 6 1016.9 1016.9 8.4
22/01:09am 13.7 13.3 13.1 96 0.3 NNW 7 9 4 5 1016.9 1016.9 8.2
22/01:00am 13.7 13.3 13.1 96 0.3 NNW 7 9 4 5 1016.9 1016.9 8.0
22/12:57am 13.7 13.3 13.1 96 0.3 NNW 7 11 4 6 1016.9 1016.9 8.0
22/12:30am 13.6 12.5 13.0 96 0.3 N 11 15 6 8 1016.8 1016.8 7.8
22/12:05am 13.6 12.1 13.0 96 0.3 NW 13 13 7 7 1016.8 1016.8 7.0
22/12:00am 13.6 12.5 13.0 96 0.3 WNW 11 13 6 7 1016.7 1016.7 7.0
 
Date/Time
WST
Temp
°C
App
Temp
°C
Dew
Point
°C
Rel
Hum
%
Delta-T
°C
Wind Press
QNH
hPa
Press
MSL
hPa
Rain since
9am
mm
Dir  Spd
km/h
Gust
km/h
Spd
kts
Gust
kts
21/11:35pm 13.5 13.0 12.7 95 0.4 WNW 7 11 4 6 1016.6 1016.6 7.0
21/11:30pm 13.4 12.5 12.6 95 0.4 WNW 9 11 5 6 1016.7 1016.7 7.0
21/11:25pm 13.4 12.5 12.6 95 0.4 WNW 9 11 5 6 1016.7 1016.7 7.0
21/11:06pm 13.2 10.2 12.4 95 0.4 WNW 20 37 11 20 1016.8 1016.8 6.8
21/11:00pm 12.8 10.6 12.0 95 0.4 N 15 28 8 15 1016.9 1016.9 6.8
21/10:58pm 12.9 11.1 12.1 95 0.4 NNE 13 17 7 9 1016.7 1016.7 6.8
21/10:52pm 12.7 10.8 11.9 95 0.4 NNE 13 19 7 10 1016.6 1016.6 6.2
21/10:49pm 12.6 10.7 11.7 94 0.5 NE 13 19 7 10 1016.5 1016.5 6.2
21/10:46pm 12.6 10.7 11.7 94 0.5 NE 13 19 7 10 1016.5 1016.5 6.2
21/10:36pm 12.6 11.0 11.7 94 0.5 NNE 11 13 6 7 1016.7 1016.7 6.2
21/10:30pm 12.7 11.6 11.8 94 0.5 N 9 13 5 7 1016.9 1016.9 6.2
21/10:08pm 12.7 11.1 11.6 93 0.6 NW 11 13 6 7 1017.0 1017.0 5.2
21/10:00pm 12.9 12.3 11.6 92 0.7 WSW 6 13 3 7 1016.9 1016.9 4.6
21/09:49pm 12.7 10.6 11.3 91 0.7 WNW 13 41 7 22 1017.1 1017.1 1.6
21/09:30pm 13.1 10.7 11.3 89 1.0 N 15 19 8 10 1016.3 1016.3 0.4
21/09:00pm 13.4 12.1 11.3 87 1.1 NNW 9 11 5 6 1016.2 1016.2 0.2
21/08:30pm 13.6 11.0 10.8 83 1.5 NNW 15 20 8 11 1016.4 1016.4 0.0
21/08:00pm 14.2 10.9 10.8 80 1.8 N 19 20 10 11 1015.9 1015.9 0.0
21/07:30pm 14.0 11.1 11.0 82 1.6 N 17 22 9 12 1015.9 1015.9 0.0
21/07:00pm 14.6 12.5 12.3 86 1.3 N 15 19 8 10 1015.5 1015.5 0.0
21/06:30pm 14.0 12.0 11.5 85 1.3 NNW 13 17 7 9 1015.3 1015.3 0.0
21/06:00pm 14.8 12.3 12.3 85 1.4 N 17 20 9 11 1015.0 1015.0 0.0
21/05:30pm 15.7 12.7 12.6 82 1.7 NNW 20 26 11 14 1014.7 1014.7 0.0
21/05:00pm 16.5 11.8 11.9 74 2.5 NW 28 37 15 20 1014.5 1014.5 0.0
21/04:30pm 17.3 13.0 12.2 72 2.8 NW 26 41 14 22 1014.5 1014.5 0.0
21/04:00pm 17.9 12.5 12.8 72 2.9 NW 33 46 18 25 1014.1 1014.1 0.0
21/03:30pm 18.7 13.0 11.3 62 4.0 WNW 32 50 17 27 1013.8 1013.8 0.0
21/03:27pm 18.6 13.7 11.2 62 4.0 WNW 28 48 15 26 1013.8 1013.8 0.0
21/03:00pm 18.5 13.0 9.3 55 4.8 WNW 28 43 15 23 1013.9 1013.9 0.0
21/02:30pm 19.6 12.9 9.5 52 5.4 WNW 35 48 19 26 1013.9 1013.9 0.0
21/02:00pm 19.6 12.1 10.9 57 4.7 WNW 41 57 22 31 1013.8 1013.8 0.0
21/01:51pm 20.1 13.8 11.1 56 4.9 WNW 35 54 19 29 1013.9 1013.9 0.0
21/01:30pm 19.8 13.0 9.4 51 5.5 WNW 35 48 19 26 1013.9 1013.9 0.0
21/01:00pm 18.8 11.6 9.3 54 5.0 WNW 37 50 20 27 1014.1 1014.1 0.0
21/12:35pm 19.4 14.2 12.9 66 3.7 WNW 32 50 17 27 1014.6 1014.6 0.0
21/12:30pm 18.2 12.2 12.0 67 3.4 WNW 35 50 19 27 1014.6 1014.6 0.0
21/12:17pm 18.5 12.8 11.3 63 3.9 NW 32 50 17 27 1014.5 1014.5 0.0
21/12:00pm 19.1 13.3 10.9 59 4.5 WNW 32 43 17 23 1015.0 1015.0 0.0
21/11:30am 19.4 13.0 9.3 52 5.3 WNW 33 50 18 27 1015.3 1015.3 0.0
21/11:00am 18.9 12.7 10.2 57 4.7 WNW 33 44 18 24 1015.2 1015.2 0.0
21/10:53am 19.2 14.2 11.0 59 4.5 WNW 28 43 15 23 1015.2 1015.2 0.0
21/10:30am 17.2 14.8 13.9 81 1.9 N 19 24 10 13 1015.4 1015.4 0.0
21/10:00am 16.3 14.4 14.1 87 1.3 NNW 17 22 9 12 1015.5 1015.5 0.0
21/09:30am 14.3 11.6 13.0 92 0.7 N 19 26 10 14 1015.4 1015.4 0.0
21/09:00am 13.7 10.8 12.4 92 0.7 N 19 22 10 12 1015.3 1015.3 4.0
21/08:30am 12.8 10.1 11.7 93 0.6 N 17 20 9 11 1015.1 1015.1 4.0
21/08:00am 12.6 10.5 11.3 92 0.7 N 13 17 7 9 1014.7 1014.7 4.0
21/07:30am 11.7 8.7 10.6 93 0.6 N 17 19 9 10 1014.4 1014.4 4.0
21/07:00am 11.5 9.1 10.2 92 0.7 N 13 17 7 9 1014.5 1014.5 4.0
21/06:30am 11.9 8.9 10.6 92 0.7 N 17 20 9 11 1014.1 1014.1 3.6
21/06:00am 11.7 9.9 10.8 94 0.5 N 11 15 6 8 1013.7 1013.7 3.6
21/05:30am 11.4 9.4 10.3 93 0.6 N 11 15 6 8 1013.4 1013.4 3.6
21/05:00am 11.8 9.2 10.7 93 0.6 N 15 19 8 10 1013.4 1013.4 3.6
21/04:30am 11.6 9.8 10.8 95 0.4 N 11 15 6 8 1013.3 1013.3 3.6
21/04:00am 11.4 9.5 10.5 94 0.5 N 11 13 6 7 1013.3 1013.3 3.6
21/03:30am 12.0 10.2 10.9 93 0.6 N 11 13 6 7 1013.3 1013.3 3.6
21/03:00am 12.1 10.0 11.0 93 0.6 N 13 15 7 8 1013.3 1013.3 3.6

Latest Capital City Observations: Canberra | Sydney | Melbourne | Brisbane | Adelaide | Perth | Hobart | Darwin

Other Formats:

Comma delimited format used in spreadsheet applications
http://www.bom.gov.au/fwo/IDW60901/IDW60901.94612.axf

JavaScript Object Notation format (JSON) in row-major order
http://www.bom.gov.au/fwo/IDW60901/IDW60901.94612.json